sensor_id;sensor_type;location;lat;lon;timestamp;P1;durP1;ratioP1;P2;durP2;ratioP2
47589;SDS011;33316;52.298;9.056;2024-03-22T00:00:02;12.93;;;9.52;;
47589;SDS011;33316;52.298;9.056;2024-03-22T00:02:38;13.27;;;9.40;;
47589;SDS011;33316;52.298;9.056;2024-03-22T00:05:06;12.63;;;9.35;;
47589;SDS011;33316;52.298;9.056;2024-03-22T00:07:32;11.60;;;8.40;;
47589;SDS011;33316;52.298;9.056;2024-03-22T00:09:59;12.75;;;8.15;;
47589;SDS011;33316;52.298;9.056;2024-03-22T00:12:25;16.08;;;10.55;;
47589;SDS011;33316;52.298;9.056;2024-03-22T00:14:52;14.93;;;9.48;;
47589;SDS011;33316;52.298;9.056;2024-03-22T00:17:19;11.25;;;8.25;;
47589;SDS011;33316;52.298;9.056;2024-03-22T00:19:48;14.50;;;9.82;;
47589;SDS011;33316;52.298;9.056;2024-03-22T00:22:16;13.13;;;9.05;;
47589;SDS011;33316;52.298;9.056;2024-03-22T00:24:43;13.82;;;9.82;;
47589;SDS011;33316;52.298;9.056;2024-03-22T00:27:09;15.68;;;10.30;;
47589;SDS011;33316;52.298;9.056;2024-03-22T00:29:39;16.10;;;10.38;;
47589;SDS011;33316;52.298;9.056;2024-03-22T00:32:05;15.00;;;10.27;;
47589;SDS011;33316;52.298;9.056;2024-03-22T00:34:32;16.33;;;10.30;;
47589;SDS011;33316;52.298;9.056;2024-03-22T00:37:00;16.27;;;11.18;;
47589;SDS011;33316;52.298;9.056;2024-03-22T00:39:27;15.23;;;10.88;;
47589;SDS011;33316;52.298;9.056;2024-03-22T00:41:53;15.45;;;10.60;;
47589;SDS011;33316;52.298;9.056;2024-03-22T00:44:20;16.67;;;11.18;;
47589;SDS011;33316;52.298;9.056;2024-03-22T00:46:46;16.73;;;10.93;;
47589;SDS011;33316;52.298;9.056;2024-03-22T00:49:13;16.42;;;11.32;;
47589;SDS011;33316;52.298;9.056;2024-03-22T00:51:39;16.48;;;11.25;;
47589;SDS011;33316;52.298;9.056;2024-03-22T00:54:09;16.95;;;12.07;;
47589;SDS011;33316;52.298;9.056;2024-03-22T00:56:35;17.35;;;12.07;;
47589;SDS011;33316;52.298;9.056;2024-03-22T00:59:05;15.30;;;10.82;;
47589;SDS011;33316;52.298;9.056;2024-03-22T01:01:31;16.00;;;11.25;;
47589;SDS011;33316;52.298;9.056;2024-03-22T01:03:58;17.83;;;12.02;;
47589;SDS011;33316;52.298;9.056;2024-03-22T01:06:24;17.48;;;12.38;;
47589;SDS011;33316;52.298;9.056;2024-03-22T01:08:55;17.92;;;12.18;;
47589;SDS011;33316;52.298;9.056;2024-03-22T01:11:22;16.00;;;11.15;;
47589;SDS011;33316;52.298;9.056;2024-03-22T01:13:50;19.60;;;12.85;;
47589;SDS011;33316;52.298;9.056;2024-03-22T01:16:15;17.58;;;13.05;;
47589;SDS011;33316;52.298;9.056;2024-03-22T01:18:42;20.33;;;13.18;;
47589;SDS011;33316;52.298;9.056;2024-03-22T01:21:08;18.13;;;12.73;;
47589;SDS011;33316;52.298;9.056;2024-03-22T01:23:35;17.90;;;13.07;;
47589;SDS011;33316;52.298;9.056;2024-03-22T01:26:01;19.42;;;12.82;;
47589;SDS011;33316;52.298;9.056;2024-03-22T01:28:30;21.63;;;13.68;;
47589;SDS011;33316;52.298;9.056;2024-03-22T01:30:56;19.50;;;13.05;;
47589;SDS011;33316;52.298;9.056;2024-03-22T01:33:23;21.20;;;14.07;;
47589;SDS011;33316;52.298;9.056;2024-03-22T01:35:49;23.33;;;15.82;;
47589;SDS011;33316;52.298;9.056;2024-03-22T01:38:16;25.08;;;16.48;;
47589;SDS011;33316;52.298;9.056;2024-03-22T01:40:42;23.25;;;15.18;;
47589;SDS011;33316;52.298;9.056;2024-03-22T01:43:09;22.13;;;15.15;;
47589;SDS011;33316;52.298;9.056;2024-03-22T01:45:36;23.65;;;15.40;;
47589;SDS011;33316;52.298;9.056;2024-03-22T01:48:03;24.55;;;15.65;;
47589;SDS011;33316;52.298;9.056;2024-03-22T01:50:31;24.58;;;15.70;;
47589;SDS011;33316;52.298;9.056;2024-03-22T01:52:58;28.23;;;16.67;;
47589;SDS011;33316;52.298;9.056;2024-03-22T01:55:24;26.38;;;17.02;;
47589;SDS011;33316;52.298;9.056;2024-03-22T01:57:54;22.27;;;14.38;;
47589;SDS011;33316;52.298;9.056;2024-03-22T02:00:21;23.13;;;14.68;;
47589;SDS011;33316;52.298;9.056;2024-03-22T02:02:50;21.45;;;13.85;;
47589;SDS011;33316;52.298;9.056;2024-03-22T02:05:17;21.30;;;13.85;;
47589;SDS011;33316;52.298;9.056;2024-03-22T02:07:45;20.75;;;12.50;;
47589;SDS011;33316;52.298;9.056;2024-03-22T02:10:11;19.88;;;12.80;;
47589;SDS011;33316;52.298;9.056;2024-03-22T02:12:41;22.58;;;14.25;;
47589;SDS011;33316;52.298;9.056;2024-03-22T02:15:07;23.48;;;14.55;;
47589;SDS011;33316;52.298;9.056;2024-03-22T02:17:35;23.58;;;15.52;;
47589;SDS011;33316;52.298;9.056;2024-03-22T02:20:02;22.52;;;15.40;;
47589;SDS011;33316;52.298;9.056;2024-03-22T02:22:30;25.75;;;15.68;;
47589;SDS011;33316;52.298;9.056;2024-03-22T02:24:57;25.48;;;16.63;;
47589;SDS011;33316;52.298;9.056;2024-03-22T02:27:24;21.77;;;13.57;;
47589;SDS011;33316;52.298;9.056;2024-03-22T02:29:51;23.40;;;15.52;;
47589;SDS011;33316;52.298;9.056;2024-03-22T02:32:18;23.20;;;13.88;;
47589;SDS011;33316;52.298;9.056;2024-03-22T02:34:44;23.85;;;15.23;;
47589;SDS011;33316;52.298;9.056;2024-03-22T02:37:11;28.63;;;17.33;;
47589;SDS011;33316;52.298;9.056;2024-03-22T02:39:37;23.17;;;15.55;;
47589;SDS011;33316;52.298;9.056;2024-03-22T02:42:05;24.13;;;15.07;;
47589;SDS011;33316;52.298;9.056;2024-03-22T02:44:31;25.15;;;15.60;;
47589;SDS011;33316;52.298;9.056;2024-03-22T02:46:58;23.92;;;14.85;;
47589;SDS011;33316;52.298;9.056;2024-03-22T02:49:24;23.83;;;15.68;;
47589;SDS011;33316;52.298;9.056;2024-03-22T02:51:51;23.58;;;15.00;;
47589;SDS011;33316;52.298;9.056;2024-03-22T02:54:17;20.65;;;13.90;;
47589;SDS011;33316;52.298;9.056;2024-03-22T02:56:44;24.65;;;14.10;;
47589;SDS011;33316;52.298;9.056;2024-03-22T02:59:11;21.65;;;13.93;;
47589;SDS011;33316;52.298;9.056;2024-03-22T03:01:38;26.27;;;15.13;;
47589;SDS011;33316;52.298;9.056;2024-03-22T03:04:04;23.00;;;15.15;;
47589;SDS011;33316;52.298;9.056;2024-03-22T03:06:31;25.58;;;16.10;;
47589;SDS011;33316;52.298;9.056;2024-03-22T03:08:57;27.38;;;17.13;;
47589;SDS011;33316;52.298;9.056;2024-03-22T03:11:23;27.55;;;17.88;;
47589;SDS011;33316;52.298;9.056;2024-03-22T03:13:49;26.75;;;16.35;;
47589;SDS011;33316;52.298;9.056;2024-03-22T03:16:18;22.88;;;14.70;;
47589;SDS011;33316;52.298;9.056;2024-03-22T03:18:43;25.65;;;15.35;;
47589;SDS011;33316;52.298;9.056;2024-03-22T03:21:10;25.23;;;15.82;;
47589;SDS011;33316;52.298;9.056;2024-03-22T03:23:36;22.45;;;14.27;;
47589;SDS011;33316;52.298;9.056;2024-03-22T03:26:03;22.85;;;14.30;;
47589;SDS011;33316;52.298;9.056;2024-03-22T03:28:30;27.42;;;16.80;;
47589;SDS011;33316;52.298;9.056;2024-03-22T03:30:57;23.92;;;15.05;;
47589;SDS011;33316;52.298;9.056;2024-03-22T03:33:24;23.65;;;14.48;;
47589;SDS011;33316;52.298;9.056;2024-03-22T03:35:51;22.05;;;13.38;;
47589;SDS011;33316;52.298;9.056;2024-03-22T03:38:17;23.85;;;15.35;;
47589;SDS011;33316;52.298;9.056;2024-03-22T03:40:44;26.52;;;16.00;;
47589;SDS011;33316;52.298;9.056;2024-03-22T03:43:09;24.30;;;15.48;;
47589;SDS011;33316;52.298;9.056;2024-03-22T03:45:36;25.55;;;14.98;;
47589;SDS011;33316;52.298;9.056;2024-03-22T03:48:03;26.05;;;15.20;;
47589;SDS011;33316;52.298;9.056;2024-03-22T03:50:31;26.23;;;15.13;;
47589;SDS011;33316;52.298;9.056;2024-03-22T03:52:57;26.92;;;16.13;;
47589;SDS011;33316;52.298;9.056;2024-03-22T03:55:24;30.80;;;18.67;;
47589;SDS011;33316;52.298;9.056;2024-03-22T03:57:50;29.98;;;16.08;;
47589;SDS011;33316;52.298;9.056;2024-03-22T04:00:17;27.10;;;16.80;;
47589;SDS011;33316;52.298;9.056;2024-03-22T04:02:43;26.15;;;15.10;;
47589;SDS011;33316;52.298;9.056;2024-03-22T04:05:15;25.25;;;15.35;;
47589;SDS011;33316;52.298;9.056;2024-03-22T04:07:46;26.75;;;14.90;;
47589;SDS011;33316;52.298;9.056;2024-03-22T04:10:13;26.58;;;16.70;;
47589;SDS011;33316;52.298;9.056;2024-03-22T04:12:39;27.30;;;16.50;;
47589;SDS011;33316;52.298;9.056;2024-03-22T04:15:06;25.48;;;15.60;;
47589;SDS011;33316;52.298;9.056;2024-03-22T04:17:33;24.50;;;14.48;;
47589;SDS011;33316;52.298;9.056;2024-03-22T04:20:00;28.23;;;16.50;;
47589;SDS011;33316;52.298;9.056;2024-03-22T04:22:26;27.70;;;15.80;;
47589;SDS011;33316;52.298;9.056;2024-03-22T04:24:54;24.77;;;14.77;;
47589;SDS011;33316;52.298;9.056;2024-03-22T04:27:20;27.35;;;15.00;;
47589;SDS011;33316;52.298;9.056;2024-03-22T04:29:47;30.98;;;17.98;;
47589;SDS011;33316;52.298;9.056;2024-03-22T04:32:13;24.38;;;15.07;;
47589;SDS011;33316;52.298;9.056;2024-03-22T04:34:41;31.20;;;17.92;;
47589;SDS011;33316;52.298;9.056;2024-03-22T04:37:07;27.30;;;16.67;;
47589;SDS011;33316;52.298;9.056;2024-03-22T04:39:34;27.17;;;15.68;;
47589;SDS011;33316;52.298;9.056;2024-03-22T04:42:02;29.45;;;17.15;;
47589;SDS011;33316;52.298;9.056;2024-03-22T04:44:30;23.10;;;13.77;;
47589;SDS011;33316;52.298;9.056;2024-03-22T04:46:57;28.55;;;15.55;;
47589;SDS011;33316;52.298;9.056;2024-03-22T04:49:23;30.60;;;15.85;;
47589;SDS011;33316;52.298;9.056;2024-03-22T04:51:50;29.05;;;16.25;;
47589;SDS011;33316;52.298;9.056;2024-03-22T04:54:18;24.60;;;15.05;;
47589;SDS011;33316;52.298;9.056;2024-03-22T04:56:44;24.70;;;14.80;;
47589;SDS011;33316;52.298;9.056;2024-03-22T04:59:12;22.58;;;13.43;;
47589;SDS011;33316;52.298;9.056;2024-03-22T05:01:38;23.63;;;14.40;;
47589;SDS011;33316;52.298;9.056;2024-03-22T05:06:35;17.20;;;10.50;;
47589;SDS011;33316;52.298;9.056;2024-03-22T05:09:02;18.75;;;10.63;;
47589;SDS011;33316;52.298;9.056;2024-03-22T05:11:28;24.73;;;13.15;;
47589;SDS011;33316;52.298;9.056;2024-03-22T05:13:55;23.23;;;13.07;;
47589;SDS011;33316;52.298;9.056;2024-03-22T05:16:23;24.13;;;14.85;;
47589;SDS011;33316;52.298;9.056;2024-03-22T05:18:50;26.50;;;15.55;;
47589;SDS011;33316;52.298;9.056;2024-03-22T05:21:16;22.23;;;13.45;;
47589;SDS011;33316;52.298;9.056;2024-03-22T05:23:43;24.85;;;14.93;;
47589;SDS011;33316;52.298;9.056;2024-03-22T05:26:11;26.80;;;14.88;;
47589;SDS011;33316;52.298;9.056;2024-03-22T05:28:38;23.63;;;14.45;;
47589;SDS011;33316;52.298;9.056;2024-03-22T05:31:04;24.48;;;14.38;;
47589;SDS011;33316;52.298;9.056;2024-03-22T05:33:32;25.92;;;13.88;;
47589;SDS011;33316;52.298;9.056;2024-03-22T05:35:58;25.13;;;13.88;;
47589;SDS011;33316;52.298;9.056;2024-03-22T05:38:25;24.33;;;13.25;;
47589;SDS011;33316;52.298;9.056;2024-03-22T05:40:51;23.48;;;14.07;;
47589;SDS011;33316;52.298;9.056;2024-03-22T05:43:18;22.02;;;12.45;;
47589;SDS011;33316;52.298;9.056;2024-03-22T05:45:44;21.13;;;13.15;;
47589;SDS011;33316;52.298;9.056;2024-03-22T05:48:11;26.63;;;14.70;;
47589;SDS011;33316;52.298;9.056;2024-03-22T05:50:38;23.45;;;13.18;;
47589;SDS011;33316;52.298;9.056;2024-03-22T05:53:05;24.08;;;14.20;;
47589;SDS011;33316;52.298;9.056;2024-03-22T05:55:31;27.92;;;15.38;;
47589;SDS011;33316;52.298;9.056;2024-03-22T05:57:58;24.67;;;13.77;;
47589;SDS011;33316;52.298;9.056;2024-03-22T06:00:24;21.98;;;13.05;;
47589;SDS011;33316;52.298;9.056;2024-03-22T06:02:53;24.13;;;13.65;;
47589;SDS011;33316;52.298;9.056;2024-03-22T06:05:19;24.40;;;14.00;;
47589;SDS011;33316;52.298;9.056;2024-03-22T06:07:47;24.00;;;14.15;;
47589;SDS011;33316;52.298;9.056;2024-03-22T06:10:13;26.77;;;15.35;;
47589;SDS011;33316;52.298;9.056;2024-03-22T06:12:40;23.80;;;14.15;;
47589;SDS011;33316;52.298;9.056;2024-03-22T06:15:06;24.27;;;14.45;;
47589;SDS011;33316;52.298;9.056;2024-03-22T06:17:33;23.38;;;14.27;;
47589;SDS011;33316;52.298;9.056;2024-03-22T06:19:59;24.00;;;14.18;;
47589;SDS011;33316;52.298;9.056;2024-03-22T06:22:27;20.90;;;11.32;;
47589;SDS011;33316;52.298;9.056;2024-03-22T06:24:54;22.42;;;13.05;;
47589;SDS011;33316;52.298;9.056;2024-03-22T06:27:21;22.45;;;12.75;;
47589;SDS011;33316;52.298;9.056;2024-03-22T06:29:48;25.88;;;13.73;;
47589;SDS011;33316;52.298;9.056;2024-03-22T06:32:15;27.63;;;14.23;;
47589;SDS011;33316;52.298;9.056;2024-03-22T06:34:40;23.20;;;13.25;;
47589;SDS011;33316;52.298;9.056;2024-03-22T06:37:07;20.88;;;13.10;;
47589;SDS011;33316;52.298;9.056;2024-03-22T06:39:33;22.60;;;12.38;;
47589;SDS011;33316;52.298;9.056;2024-03-22T06:42:02;20.90;;;12.27;;
47589;SDS011;33316;52.298;9.056;2024-03-22T06:44:28;19.70;;;11.40;;
47589;SDS011;33316;52.298;9.056;2024-03-22T06:46:55;23.08;;;12.82;;
47589;SDS011;33316;52.298;9.056;2024-03-22T06:49:20;20.65;;;11.90;;
47589;SDS011;33316;52.298;9.056;2024-03-22T06:51:56;21.50;;;12.90;;
47589;SDS011;33316;52.298;9.056;2024-03-22T06:54:25;24.30;;;13.48;;
47589;SDS011;33316;52.298;9.056;2024-03-22T06:56:52;26.10;;;13.70;;
47589;SDS011;33316;52.298;9.056;2024-03-22T06:59:19;23.50;;;13.32;;
47589;SDS011;33316;52.298;9.056;2024-03-22T07:01:46;22.40;;;13.18;;
47589;SDS011;33316;52.298;9.056;2024-03-22T07:04:12;24.48;;;14.23;;
47589;SDS011;33316;52.298;9.056;2024-03-22T07:06:39;24.42;;;14.23;;
47589;SDS011;33316;52.298;9.056;2024-03-22T07:09:07;22.75;;;13.23;;
47589;SDS011;33316;52.298;9.056;2024-03-22T07:11:37;22.38;;;13.15;;
47589;SDS011;33316;52.298;9.056;2024-03-22T07:14:02;20.83;;;12.27;;
47589;SDS011;33316;52.298;9.056;2024-03-22T07:16:31;22.73;;;13.43;;
47589;SDS011;33316;52.298;9.056;2024-03-22T07:18:56;23.63;;;13.23;;
47589;SDS011;33316;52.298;9.056;2024-03-22T07:21:23;20.27;;;11.02;;
47589;SDS011;33316;52.298;9.056;2024-03-22T07:23:49;19.13;;;10.73;;
47589;SDS011;33316;52.298;9.056;2024-03-22T07:26:16;18.63;;;11.43;;
47589;SDS011;33316;52.298;9.056;2024-03-22T07:28:42;22.60;;;13.20;;
47589;SDS011;33316;52.298;9.056;2024-03-22T07:31:10;23.80;;;12.70;;
47589;SDS011;33316;52.298;9.056;2024-03-22T07:33:37;21.88;;;13.00;;
47589;SDS011;33316;52.298;9.056;2024-03-22T07:36:04;20.98;;;11.98;;
47589;SDS011;33316;52.298;9.056;2024-03-22T07:38:30;23.80;;;13.52;;
47589;SDS011;33316;52.298;9.056;2024-03-22T07:40:57;22.25;;;13.20;;
47589;SDS011;33316;52.298;9.056;2024-03-22T07:43:23;22.23;;;12.85;;
47589;SDS011;33316;52.298;9.056;2024-03-22T07:45:50;20.30;;;11.85;;
47589;SDS011;33316;52.298;9.056;2024-03-22T07:48:19;21.85;;;12.82;;
47589;SDS011;33316;52.298;9.056;2024-03-22T07:50:55;20.25;;;13.35;;
47589;SDS011;33316;52.298;9.056;2024-03-22T07:53:25;22.90;;;12.15;;
47589;SDS011;33316;52.298;9.056;2024-03-22T07:55:53;20.67;;;12.07;;
47589;SDS011;33316;52.298;9.056;2024-03-22T07:58:20;16.20;;;10.00;;
47589;SDS011;33316;52.298;9.056;2024-03-22T08:00:48;19.00;;;11.27;;
47589;SDS011;33316;52.298;9.056;2024-03-22T08:03:16;19.50;;;10.90;;
47589;SDS011;33316;52.298;9.056;2024-03-22T08:05:42;19.08;;;12.15;;
47589;SDS011;33316;52.298;9.056;2024-03-22T08:08:16;20.55;;;11.80;;
47589;SDS011;33316;52.298;9.056;2024-03-22T08:13:09;15.48;;;9.50;;
47589;SDS011;33316;52.298;9.056;2024-03-22T08:15:38;18.45;;;10.73;;
47589;SDS011;33316;52.298;9.056;2024-03-22T08:18:04;21.98;;;12.13;;
47589;SDS011;33316;52.298;9.056;2024-03-22T08:20:31;18.40;;;11.15;;
47589;SDS011;33316;52.298;9.056;2024-03-22T08:23:01;19.58;;;11.93;;
47589;SDS011;33316;52.298;9.056;2024-03-22T08:25:31;16.40;;;10.45;;
47589;SDS011;33316;52.298;9.056;2024-03-22T08:27:59;19.30;;;11.65;;
47589;SDS011;33316;52.298;9.056;2024-03-22T08:30:25;20.08;;;11.77;;
47589;SDS011;33316;52.298;9.056;2024-03-22T08:32:52;19.88;;;11.20;;
47589;SDS011;33316;52.298;9.056;2024-03-22T08:35:18;18.00;;;11.40;;
47589;SDS011;33316;52.298;9.056;2024-03-22T08:37:49;18.60;;;11.35;;
47589;SDS011;33316;52.298;9.056;2024-03-22T08:40:17;17.75;;;10.30;;
47589;SDS011;33316;52.298;9.056;2024-03-22T08:42:45;15.85;;;10.65;;
47589;SDS011;33316;52.298;9.056;2024-03-22T08:45:13;17.10;;;10.07;;
47589;SDS011;33316;52.298;9.056;2024-03-22T08:47:41;14.32;;;9.68;;
47589;SDS011;33316;52.298;9.056;2024-03-22T08:50:08;18.83;;;10.80;;
47589;SDS011;33316;52.298;9.056;2024-03-22T08:52:35;19.92;;;10.93;;
47589;SDS011;33316;52.298;9.056;2024-03-22T08:55:04;18.75;;;11.13;;
47589;SDS011;33316;52.298;9.056;2024-03-22T08:57:32;19.70;;;11.80;;
47589;SDS011;33316;52.298;9.056;2024-03-22T08:59:59;20.85;;;13.27;;
47589;SDS011;33316;52.298;9.056;2024-03-22T09:02:26;20.45;;;12.45;;
47589;SDS011;33316;52.298;9.056;2024-03-22T09:04:52;19.02;;;12.07;;
47589;SDS011;33316;52.298;9.056;2024-03-22T09:07:21;20.52;;;13.02;;
47589;SDS011;33316;52.298;9.056;2024-03-22T09:09:49;18.33;;;12.93;;
47589;SDS011;33316;52.298;9.056;2024-03-22T09:12:18;20.40;;;13.15;;
47589;SDS011;33316;52.298;9.056;2024-03-22T09:14:44;22.48;;;14.30;;
47589;SDS011;33316;52.298;9.056;2024-03-22T09:17:15;17.48;;;11.85;;
47589;SDS011;33316;52.298;9.056;2024-03-22T09:19:41;18.63;;;12.70;;
47589;SDS011;33316;52.298;9.056;2024-03-22T09:22:09;18.95;;;12.18;;
47589;SDS011;33316;52.298;9.056;2024-03-22T09:24:34;21.60;;;13.82;;
47589;SDS011;33316;52.298;9.056;2024-03-22T09:27:01;17.40;;;12.35;;
47589;SDS011;33316;52.298;9.056;2024-03-22T09:29:34;19.08;;;12.07;;
47589;SDS011;33316;52.298;9.056;2024-03-22T09:32:01;18.73;;;11.93;;
47589;SDS011;33316;52.298;9.056;2024-03-22T09:34:28;19.92;;;11.93;;
47589;SDS011;33316;52.298;9.056;2024-03-22T09:36:56;16.52;;;12.48;;
47589;SDS011;33316;52.298;9.056;2024-03-22T09:39:25;17.65;;;11.98;;
47589;SDS011;33316;52.298;9.056;2024-03-22T09:41:58;20.98;;;12.90;;
47589;SDS011;33316;52.298;9.056;2024-03-22T09:44:31;18.02;;;12.02;;
47589;SDS011;33316;52.298;9.056;2024-03-22T09:47:02;14.85;;;11.40;;
47589;SDS011;33316;52.298;9.056;2024-03-22T09:49:29;17.05;;;12.20;;
47589;SDS011;33316;52.298;9.056;2024-03-22T09:51:56;18.45;;;12.00;;
47589;SDS011;33316;52.298;9.056;2024-03-22T09:54:25;16.65;;;11.35;;
47589;SDS011;33316;52.298;9.056;2024-03-22T09:56:52;15.75;;;11.27;;
47589;SDS011;33316;52.298;9.056;2024-03-22T09:59:19;17.58;;;11.10;;
47589;SDS011;33316;52.298;9.056;2024-03-22T10:01:46;17.55;;;11.93;;
47589;SDS011;33316;52.298;9.056;2024-03-22T10:04:13;16.63;;;11.27;;
47589;SDS011;33316;52.298;9.056;2024-03-22T10:06:41;20.70;;;13.20;;
47589;SDS011;33316;52.298;9.056;2024-03-22T10:09:11;21.70;;;12.93;;
47589;SDS011;33316;52.298;9.056;2024-03-22T10:11:38;15.77;;;11.73;;
47589;SDS011;33316;52.298;9.056;2024-03-22T10:16:41;16.27;;;11.20;;
47589;SDS011;33316;52.298;9.056;2024-03-22T10:19:07;19.27;;;13.38;;
47589;SDS011;33316;52.298;9.056;2024-03-22T10:21:34;20.13;;;12.43;;
47589;SDS011;33316;52.298;9.056;2024-03-22T10:24:02;14.88;;;10.27;;
47589;SDS011;33316;52.298;9.056;2024-03-22T10:26:29;16.02;;;10.82;;
47589;SDS011;33316;52.298;9.056;2024-03-22T10:29:01;16.63;;;10.80;;
47589;SDS011;33316;52.298;9.056;2024-03-22T10:31:32;16.85;;;10.70;;
47589;SDS011;33316;52.298;9.056;2024-03-22T10:34:00;14.75;;;9.20;;
47589;SDS011;33316;52.298;9.056;2024-03-22T10:36:30;16.70;;;10.95;;
47589;SDS011;33316;52.298;9.056;2024-03-22T10:38:58;16.92;;;10.80;;
47589;SDS011;33316;52.298;9.056;2024-03-22T10:41:28;17.67;;;10.70;;
47589;SDS011;33316;52.298;9.056;2024-03-22T10:43:54;15.00;;;10.27;;
47589;SDS011;33316;52.298;9.056;2024-03-22T10:46:21;17.23;;;11.35;;
47589;SDS011;33316;52.298;9.056;2024-03-22T10:48:54;17.30;;;10.10;;
47589;SDS011;33316;52.298;9.056;2024-03-22T10:51:24;17.23;;;11.15;;
47589;SDS011;33316;52.298;9.056;2024-03-22T10:53:51;17.90;;;11.27;;
47589;SDS011;33316;52.298;9.056;2024-03-22T10:56:21;15.07;;;9.80;;
47589;SDS011;33316;52.298;9.056;2024-03-22T10:58:51;13.40;;;9.35;;
47589;SDS011;33316;52.298;9.056;2024-03-22T11:01:24;15.88;;;10.15;;
47589;SDS011;33316;52.298;9.056;2024-03-22T11:04:03;14.20;;;9.75;;
47589;SDS011;33316;52.298;9.056;2024-03-22T11:06:30;13.40;;;9.07;;
47589;SDS011;33316;52.298;9.056;2024-03-22T11:08:58;13.55;;;10.30;;
47589;SDS011;33316;52.298;9.056;2024-03-22T11:11:25;20.52;;;11.07;;
47589;SDS011;33316;52.298;9.056;2024-03-22T11:13:57;15.95;;;10.63;;
47589;SDS011;33316;52.298;9.056;2024-03-22T11:16:24;13.18;;;8.73;;
47589;SDS011;33316;52.298;9.056;2024-03-22T11:18:50;13.02;;;8.20;;
47589;SDS011;33316;52.298;9.056;2024-03-22T11:21:17;11.95;;;7.97;;
47589;SDS011;33316;52.298;9.056;2024-03-22T11:23:44;13.57;;;7.97;;
47589;SDS011;33316;52.298;9.056;2024-03-22T11:26:12;16.30;;;10.43;;
47589;SDS011;33316;52.298;9.056;2024-03-22T11:28:38;14.05;;;9.18;;
47589;SDS011;33316;52.298;9.056;2024-03-22T11:31:07;14.32;;;8.73;;
47589;SDS011;33316;52.298;9.056;2024-03-22T11:33:33;15.57;;;9.18;;
47589;SDS011;33316;52.298;9.056;2024-03-22T11:36:00;13.93;;;8.75;;
47589;SDS011;33316;52.298;9.056;2024-03-22T11:38:26;14.45;;;9.50;;
47589;SDS011;33316;52.298;9.056;2024-03-22T11:40:55;13.73;;;8.00;;
47589;SDS011;33316;52.298;9.056;2024-03-22T11:43:25;15.02;;;9.88;;
47589;SDS011;33316;52.298;9.056;2024-03-22T11:45:53;14.07;;;8.93;;
47589;SDS011;33316;52.298;9.056;2024-03-22T11:48:21;14.50;;;9.55;;
47589;SDS011;33316;52.298;9.056;2024-03-22T11:50:49;13.32;;;9.30;;
47589;SDS011;33316;52.298;9.056;2024-03-22T11:53:15;14.15;;;9.18;;
47589;SDS011;33316;52.298;9.056;2024-03-22T11:55:42;15.93;;;9.98;;
47589;SDS011;33316;52.298;9.056;2024-03-22T11:58:08;15.82;;;9.38;;
47589;SDS011;33316;52.298;9.056;2024-03-22T12:00:36;13.90;;;8.95;;
47589;SDS011;33316;52.298;9.056;2024-03-22T12:03:03;12.43;;;8.60;;
47589;SDS011;33316;52.298;9.056;2024-03-22T12:05:33;11.60;;;7.38;;
47589;SDS011;33316;52.298;9.056;2024-03-22T12:08:00;13.70;;;9.02;;
47589;SDS011;33316;52.298;9.056;2024-03-22T12:10:27;17.42;;;8.68;;
47589;SDS011;33316;52.298;9.056;2024-03-22T12:12:53;15.07;;;9.80;;
47589;SDS011;33316;52.298;9.056;2024-03-22T12:15:22;16.20;;;9.63;;
47589;SDS011;33316;52.298;9.056;2024-03-22T12:17:48;17.42;;;10.90;;
47589;SDS011;33316;52.298;9.056;2024-03-22T12:20:16;17.23;;;10.48;;
47589;SDS011;33316;52.298;9.056;2024-03-22T12:22:47;14.13;;;9.80;;
47589;SDS011;33316;52.298;9.056;2024-03-22T12:25:14;11.98;;;8.80;;
47589;SDS011;33316;52.298;9.056;2024-03-22T12:27:40;10.25;;;7.45;;
47589;SDS011;33316;52.298;9.056;2024-03-22T12:30:08;13.70;;;9.35;;
47589;SDS011;33316;52.298;9.056;2024-03-22T12:32:35;12.18;;;8.23;;
47589;SDS011;33316;52.298;9.056;2024-03-22T12:35:02;11.18;;;7.82;;
47589;SDS011;33316;52.298;9.056;2024-03-22T12:37:29;11.85;;;8.48;;
47589;SDS011;33316;52.298;9.056;2024-03-22T12:39:57;14.45;;;9.52;;
47589;SDS011;33316;52.298;9.056;2024-03-22T12:42:23;14.82;;;9.82;;
47589;SDS011;33316;52.298;9.056;2024-03-22T12:44:50;12.18;;;8.48;;
47589;SDS011;33316;52.298;9.056;2024-03-22T12:47:16;15.55;;;10.05;;
47589;SDS011;33316;52.298;9.056;2024-03-22T12:49:43;14.18;;;9.27;;
47589;SDS011;33316;52.298;9.056;2024-03-22T12:52:10;13.35;;;9.38;;
47589;SDS011;33316;52.298;9.056;2024-03-22T12:54:37;11.73;;;8.05;;
47589;SDS011;33316;52.298;9.056;2024-03-22T12:57:04;15.00;;;9.85;;
47589;SDS011;33316;52.298;9.056;2024-03-22T12:59:34;12.23;;;8.65;;
47589;SDS011;33316;52.298;9.056;2024-03-22T13:02:01;15.00;;;10.13;;
47589;SDS011;33316;52.298;9.056;2024-03-22T13:04:31;12.57;;;9.02;;
47589;SDS011;33316;52.298;9.056;2024-03-22T13:07:02;12.45;;;8.38;;
47589;SDS011;33316;52.298;9.056;2024-03-22T13:09:29;10.18;;;7.18;;
47589;SDS011;33316;52.298;9.056;2024-03-22T13:11:55;10.43;;;7.78;;
47589;SDS011;33316;52.298;9.056;2024-03-22T13:14:23;10.98;;;8.20;;
47589;SDS011;33316;52.298;9.056;2024-03-22T13:16:49;12.73;;;8.00;;
47589;SDS011;33316;52.298;9.056;2024-03-22T13:19:16;11.48;;;7.50;;
47589;SDS011;33316;52.298;9.056;2024-03-22T13:21:43;11.30;;;7.35;;
47589;SDS011;33316;52.298;9.056;2024-03-22T13:24:13;10.30;;;7.20;;
47589;SDS011;33316;52.298;9.056;2024-03-22T13:26:42;11.20;;;7.40;;
47589;SDS011;33316;52.298;9.056;2024-03-22T13:29:09;10.80;;;7.15;;
47589;SDS011;33316;52.298;9.056;2024-03-22T13:31:37;11.80;;;6.95;;
47589;SDS011;33316;52.298;9.056;2024-03-22T13:34:04;11.90;;;7.80;;
47589;SDS011;33316;52.298;9.056;2024-03-22T13:36:30;12.13;;;7.70;;
47589;SDS011;33316;52.298;9.056;2024-03-22T13:38:58;11.68;;;8.00;;
47589;SDS011;33316;52.298;9.056;2024-03-22T13:44:00;8.75;;;5.35;;
47589;SDS011;33316;52.298;9.056;2024-03-22T13:46:28;9.10;;;6.63;;
47589;SDS011;33316;52.298;9.056;2024-03-22T13:49:13;11.27;;;6.95;;
47589;SDS011;33316;52.298;9.056;2024-03-22T13:51:42;14.90;;;8.15;;
47589;SDS011;33316;52.298;9.056;2024-03-22T13:54:09;15.95;;;8.55;;
47589;SDS011;33316;52.298;9.056;2024-03-22T13:56:35;10.95;;;8.00;;
47589;SDS011;33316;52.298;9.056;2024-03-22T13:59:03;9.57;;;6.82;;
47589;SDS011;33316;52.298;9.056;2024-03-22T14:01:30;9.95;;;7.20;;
47589;SDS011;33316;52.298;9.056;2024-03-22T14:03:57;8.88;;;6.32;;
47589;SDS011;33316;52.298;9.056;2024-03-22T14:06:24;10.02;;;6.60;;
47589;SDS011;33316;52.298;9.056;2024-03-22T14:08:51;8.80;;;6.55;;
47589;SDS011;33316;52.298;9.056;2024-03-22T14:11:19;11.45;;;6.85;;
47589;SDS011;33316;52.298;9.056;2024-03-22T14:13:46;8.63;;;5.78;;
47589;SDS011;33316;52.298;9.056;2024-03-22T14:16:14;9.98;;;6.03;;
47589;SDS011;33316;52.298;9.056;2024-03-22T14:18:40;10.35;;;7.22;;
47589;SDS011;33316;52.298;9.056;2024-03-22T14:21:06;15.45;;;9.18;;
47589;SDS011;33316;52.298;9.056;2024-03-22T14:23:38;9.85;;;6.95;;
47589;SDS011;33316;52.298;9.056;2024-03-22T14:26:05;10.45;;;6.85;;
47589;SDS011;33316;52.298;9.056;2024-03-22T14:28:32;11.30;;;7.72;;
47589;SDS011;33316;52.298;9.056;2024-03-22T14:30:59;10.38;;;7.35;;
47589;SDS011;33316;52.298;9.056;2024-03-22T14:33:29;10.25;;;7.05;;
47589;SDS011;33316;52.298;9.056;2024-03-22T14:35:56;9.70;;;6.70;;